PH-0044 weather

TSD Communications Department Heliport
Mandaluyong, Philippines

Public forecast

Using degrees Celsius for public forecast. Weather courtesy of forecast.io.

METAR (pilot weather report)

Closest report is Ninoy Aquino International Airport, 4.5 nm (8.3 km) SSW. Retrieved 2019/07/21 10:00 UTC (30 minutes ago):

RPLL 211000Z 32006G17KT 290V360 9999 SCT023 BKN100 29/26 Q1007 NOSIG RMK A2974

TAF (pilot weather forecast)

Closest forecast is Ninoy Aquino International Airport, 4.5 nm (8.3 km) SSW. Retrieved 2019/07/21 06:00 UTC (4 hours ago):

TAF RPLL 210500Z 2106/2212 26006KT 9999 FEW025 BKN300 TX32/2106Z TN27/2122Z TEMPO 2106/2112 27012KT FEW023CB BKN100 TEMPO 2112/2118 23006KT 8000 -SHRA SCT023 BKN100